Time;durP1;ratioP1;P1;durP2;ratioP2;P2;SDS_P1;SDS_P2;PMS_P1;PMS_P2;Temp;Humidity;BMP_temperature;BMP_pressure;BME280_temperature;BME280_humidity;BME280_pressure;Samples;Min_cycle;Max_cycle;Signal;HPM_P1;HPM_P2
2022/02/12 00:02:12;;;;;;;0.00;0.00;;;;;24.90;100320.00;;;;5113045;27;20138;-76
2022/02/12 00:04:42;;;;;;;0.03;0.03;;;;;24.80;100336.00;;;;5130558;27;20047;-76
2022/02/12 00:07:11;;;;;;;0.00;0.00;;;;;24.70;100316.00;;;;5112567;27;20046;-77
2022/02/12 00:09:42;;;;;;;0.00;0.00;;;;;24.70;100334.00;;;;5129098;27;20051;-77
2022/02/12 00:12:12;;;;;;;0.00;0.00;;;;;24.80;100331.00;;;;5128788;27;20557;-76
2022/02/12 00:14:42;;;;;;;0.00;0.00;;;;;24.70;100320.00;;;;5128967;27;20092;-75
2022/02/12 00:17:15;;;;;;;0.00;0.00;;;;;24.70;100319.00;;;;5130492;27;20039;-75
2022/02/12 00:19:46;;;;;;;0.00;0.00;;;;;24.60;100334.00;;;;5129314;27;20043;-77
2022/02/12 00:22:16;;;;;;;0.00;0.00;;;;;24.60;100316.00;;;;5130585;27;20122;-78
2022/02/12 00:24:46;;;;;;;0.00;0.00;;;;;24.60;100315.00;;;;5129990;27;20043;-77
2022/02/12 00:27:15;;;;;;;0.00;0.00;;;;;24.50;100341.00;;;;5129445;27;20053;-77
2022/02/12 00:29:45;;;;;;;0.00;0.00;;;;;24.60;100344.00;;;;5128607;27;20055;-78
2022/02/12 00:32:15;;;;;;;0.00;0.00;;;;;24.80;100355.00;;;;5128509;27;20039;-79
2022/02/12 00:34:45;;;;;;;0.00;0.00;;;;;24.80;100349.00;;;;5129609;27;20050;-77
2022/02/12 00:37:14;;;;;;;0.00;0.00;;;;;24.70;100345.00;;;;5128343;27;20047;-76
2022/02/12 00:39:44;;;;;;;0.00;0.00;;;;;24.70;100355.00;;;;5130035;27;20039;-76
2022/02/12 00:42:13;;;;;;;0.00;0.00;;;;;24.60;100355.00;;;;5129648;27;20555;-76
2022/02/12 00:44:43;;;;;;;0.00;0.00;;;;;24.50;100342.00;;;;5129329;27;20053;-77
2022/02/12 00:47:13;;;;;;;;;;;;;24.50;100341.00;;;;5129433;27;20452;-77
2022/02/12 00:49:43;;;;;;;0.00;0.00;;;;;24.50;100326.00;;;;5129283;27;19923;-76
2022/02/12 00:52:12;;;;;;;0.00;0.00;;;;;24.60;100332.00;;;;5130183;27;20043;-77
2022/02/12 00:54:42;;;;;;;0.00;0.00;;;;;24.70;100337.00;;;;5129391;27;20038;-77
2022/02/12 00:57:12;;;;;;;0.00;0.00;;;;;24.80;100363.00;;;;5128202;27;20047;-76
2022/02/12 00:59:43;;;;;;;0.00;0.00;;;;;24.60;100358.00;;;;5129270;27;20559;-75
2022/02/12 01:02:12;;;;;;;0.05;0.05;;;;;24.70;100338.00;;;;5127206;27;20790;-76
2022/02/12 01:04:42;;;;;;;0.00;0.00;;;;;24.50;100342.00;;;;5127906;27;20050;-75
2022/02/12 01:07:12;;;;;;;0.00;0.00;;;;;24.50;100353.00;;;;5129448;27;20078;-75
2022/02/12 01:09:42;;;;;;;0.00;0.00;;;;;24.50;100335.00;;;;5129613;27;20500;-75
2022/02/12 01:12:14;;;;;;;0.00;0.00;;;;;24.40;100352.00;;;;5127620;27;20031;-77
2022/02/12 01:14:43;;;;;;;0.00;0.00;;;;;24.30;100353.00;;;;5129374;27;20536;-75
2022/02/12 01:17:13;;;;;;;0.00;0.00;;;;;24.40;100340.00;;;;5129645;27;20114;-76
2022/02/12 01:19:48;;;;;;;0.00;0.00;;;;;24.40;100367.00;;;;5128548;27;20045;-75
2022/02/12 01:22:19;;;;;;;0.00;0.00;;;;;24.60;100347.00;;;;5129175;27;20070;-76
2022/02/12 01:24:49;;;;;;;0.00;0.00;;;;;24.50;100360.00;;;;5128655;27;20039;-77
2022/02/12 01:27:19;;;;;;;0.00;0.00;;;;;24.70;100340.00;;;;5130137;27;20069;-80
2022/02/12 01:29:48;;;;;;;0.00;0.00;;;;;24.60;100338.00;;;;5128142;27;20157;-79
2022/02/12 01:32:24;;;;;;;0.00;0.00;;;;;24.40;100358.00;;;;5128076;27;20039;-80
2022/02/12 01:34:56;;;;;;;0.00;0.00;;;;;24.30;100354.00;;;;5129835;27;20588;-81
2022/02/12 01:37:26;;;;;;;0.00;0.00;;;;;24.40;100347.00;;;;5110369;27;20043;-78
2022/02/12 01:39:55;;;;;;;0.00;0.00;;;;;24.40;100334.00;;;;5129127;27;20066;-80
2022/02/12 01:42:27;;;;;;;0.00;0.00;;;;;24.40;100323.00;;;;5110096;27;20601;-80
2022/02/12 01:45:00;;;;;;;0.00;0.00;;;;;24.30;100352.00;;;;5119599;27;20035;-81
2022/02/12 01:47:30;;;;;;;0.00;0.00;;;;;24.10;100334.00;;;;5115719;27;20039;-81
2022/02/12 01:49:59;;;;;;;0.00;0.00;;;;;24.10;100344.00;;;;5115727;27;20039;-79
2022/02/12 01:52:31;;;;;;;0.05;0.05;;;;;24.00;100316.00;;;;5087808;28;20047;-75
2022/02/12 01:55:01;;;;;;;0.00;0.00;;;;;24.00;100340.00;;;;5086944;28;20078;-77
2022/02/12 01:57:30;;;;;;;0.00;0.00;;;;;23.90;100338.00;;;;5088749;28;20047;-77
2022/02/12 02:00:00;;;;;;;0.00;0.00;;;;;24.10;100318.00;;;;5089125;28;20044;-78
2022/02/12 02:02:39;;;;;;;0.00;0.00;;;;;24.30;100322.00;;;;5089405;28;20052;-81
2022/02/12 02:05:14;;;;;;;0.00;0.00;;;;;24.30;100348.00;;;;5087018;28;20389;-77
2022/02/12 02:07:44;;;;;;;0.00;0.00;;;;;24.30;100326.00;;;;5088151;28;20048;-78
2022/02/12 02:10:15;;;;;;;0.00;0.00;;;;;24.30;100341.00;;;;5087047;28;20048;-78
2022/02/12 02:12:44;;;;;;;0.00;0.00;;;;;24.40;100333.00;;;;5088133;28;20036;-78
2022/02/12 02:15:14;;;;;;;0.00;0.00;;;;;24.30;100324.00;;;;5085821;28;20044;-80
2022/02/12 02:17:46;;;;;;;0.00;0.00;;;;;24.50;100353.00;;;;5070243;28;20417;-79
2022/02/12 02:20:16;;;;;;;0.00;0.00;;;;;24.70;100337.00;;;;5086414;28;20053;-83
2022/02/12 02:22:56;;;;;;;0.00;0.00;;;;;24.60;100332.00;;;;5087987;28;20032;-75
2022/02/12 02:25:26;;;;;;;0.00;0.00;;;;;24.50;100330.00;;;;5087518;28;20071;-79
2022/02/12 02:27:56;;;;;;;0.00;0.00;;;;;24.30;100333.00;;;;5085864;28;20044;-78
2022/02/12 02:30:27;;;;;;;0.00;0.00;;;;;24.30;100340.00;;;;5065562;28;20056;-79
2022/02/12 02:32:58;;;;;;;0.00;0.00;;;;;24.30;100343.00;;;;5082895;28;20055;-76
2022/02/12 02:35:28;;;;;;;0.00;0.00;;;;;24.20;100331.00;;;;5092885;27;20579;-80
2022/02/12 02:38:07;;;;;;;0.00;0.00;;;;;24.20;100324.00;;;;5123828;27;20035;-76
2022/02/12 02:40:37;;;;;;;0.00;0.00;;;;;24.30;100337.00;;;;5127059;27;20409;-77
2022/02/12 02:43:06;;;;;;;0.00;0.00;;;;;24.50;100345.00;;;;5127915;27;20149;-80
2022/02/12 02:45:36;;;;;;;0.00;0.00;;;;;24.50;100341.00;;;;5127868;27;20623;-81
2022/02/12 02:48:09;;;;;;;0.00;0.00;;;;;24.30;100326.00;;;;5128082;27;20051;-78
2022/02/12 02:56:18;;;;;;;0.03;0.03;;;;;24.10;100315.00;;;;5113806;27;20039;-75
2022/02/12 02:58:55;;;;;;;0.00;0.00;;;;;24.10;100331.00;;;;5127000;27;20532;-79
2022/02/12 03:01:27;;;;;;;0.00;0.00;;;;;24.30;100312.00;;;;5126876;27;20484;-77
2022/02/12 03:03:59;;;;;;;0.00;0.00;;;;;24.30;100318.00;;;;5129511;27;20068;-76
2022/02/12 03:06:35;;;;;;;0.00;0.00;;;;;24.10;100313.00;;;;5127606;27;20130;-78
2022/02/12 03:09:05;;;;;;;0.00;0.00;;;;;23.90;100324.00;;;;5127842;27;20043;-78
2022/02/12 03:11:34;;;;;;;0.00;0.00;;;;;23.90;100326.00;;;;5128836;28;20031;-78
2022/02/12 03:14:04;;;;;;;0.00;0.00;;;;;24.00;100312.00;;;;5127194;28;20050;-80
2022/02/12 03:16:36;;;;;;;0.00;0.00;;;;;24.00;100310.00;;;;5127408;28;20051;-79
2022/02/12 03:19:05;;;;;;;0.00;0.00;;;;;24.00;100320.00;;;;5129109;28;20050;-77
2022/02/12 03:21:35;;;;;;;0.00;0.00;;;;;23.90;100302.00;;;;5132321;28;20039;-75
2022/02/12 03:24:05;;;;;;;0.00;0.00;;;;;23.80;100297.00;;;;5136113;28;20047;-80
2022/02/12 03:26:35;;;;;;;0.00;0.00;;;;;24.00;100303.00;;;;5137652;28;20533;-76
2022/02/12 03:29:04;;;;;;;0.00;0.00;;;;;23.80;100277.00;;;;5138382;27;20043;-76
2022/02/12 03:31:33;;;;;;;0.00;0.00;;;;;23.70;100275.00;;;;5136076;27;20046;-78
2022/02/12 03:34:03;;;;;;;0.00;0.00;;;;;23.70;100268.00;;;;5134714;28;20066;-79
2022/02/12 03:36:32;;;;;;;0.00;0.00;;;;;23.50;100288.00;;;;5137291;28;20063;-79
2022/02/12 03:39:03;;;;;;;82.45;74.20;;;;;23.30;100274.00;;;;5138398;27;20062;-81
2022/02/12 03:41:32;;;;;;;34.25;23.92;;;;;23.30;100269.00;;;;5136063;28;20058;-80
2022/02/12 03:44:02;;;;;;;0.10;0.10;;;;;23.30;100275.00;;;;5118171;28;20414;-76
2022/02/12 03:46:33;;;;;;;0.10;0.10;;;;;23.20;100250.00;;;;5143286;27;20047;-83
2022/02/12 03:49:02;;;;;;;0.10;0.10;;;;;23.10;100256.00;;;;5136940;28;20134;-77
2022/02/12 03:51:31;;;;;;;0.10;0.10;;;;;23.30;100249.00;;;;5133939;28;20565;-78
2022/02/12 03:54:03;;;;;;;0.10;0.10;;;;;23.20;100264.00;;;;5126617;28;20462;-79
2022/02/12 03:56:33;;;;;;;0.10;0.10;;;;;23.00;100251.00;;;;5127834;28;20047;-79
2022/02/12 03:59:03;;;;;;;0.08;0.08;;;;;23.00;100237.00;;;;5127224;28;20506;-80
2022/02/12 04:01:33;;;;;;;0.10;0.10;;;;;23.10;100256.00;;;;5131240;27;20088;-79
2022/02/12 04:04:03;;;;;;;0.10;0.10;;;;;23.00;100231.00;;;;5130584;27;20043;-77
2022/02/12 04:06:32;;;;;;;0.10;0.10;;;;;23.00;100241.00;;;;5131838;27;20122;-80
2022/02/12 04:09:01;;;;;;;0.10;0.10;;;;;22.90;100226.00;;;;5131066;27;20066;-76
2022/02/12 04:11:31;;;;;;;0.10;0.10;;;;;22.90;100221.00;;;;5129389;27;20047;-76
2022/02/12 04:14:00;;;;;;;0.10;0.10;;;;;22.90;100229.00;;;;5129087;27;20055;-81
2022/02/12 04:16:31;;;;;;;;;;;;;23.10;100245.00;;;;5131962;27;20525;-83
2022/02/12 04:19:01;;;;;;;0.10;0.10;;;;;23.00;100225.00;;;;5130238;27;19927;-79
2022/02/12 04:21:30;;;;;;;0.10;0.10;;;;;22.90;100233.00;;;;5130782;27;20040;-78
2022/02/12 04:24:00;;;;;;;0.10;0.10;;;;;22.70;100226.00;;;;5130983;27;20039;-79
2022/02/12 04:26:30;;;;;;;0.10;0.10;;;;;22.90;100219.00;;;;5130229;27;20053;-80
2022/02/12 04:29:00;;;;;;;0.10;0.10;;;;;23.10;100201.00;;;;5129518;27;20055;-78
2022/02/12 04:31:29;;;;;;;0.10;0.10;;;;;22.90;100224.00;;;;5130713;27;20035;-78
2022/02/12 04:33:59;;;;;;;0.10;0.10;;;;;22.70;100219.00;;;;5130582;27;20118;-78
2022/02/12 04:36:29;;;;;;;0.10;0.10;;;;;22.50;100215.00;;;;5129582;27;20046;-81
2022/02/12 04:38:58;;;;;;;0.10;0.10;;;;;22.20;100246.00;;;;5130676;27;20434;-75
2022/02/12 04:41:31;;;;;;;0.10;0.10;;;;;22.20;100229.00;;;;5130339;27;20039;-82
2022/02/12 04:44:00;;;;;;;0.10;0.10;;;;;22.10;100236.00;;;;5128899;27;20054;-84
2022/02/12 04:46:32;;;;;;;0.10;0.10;;;;;22.00;100249.00;;;;5129108;27;20047;-77
2022/02/12 04:49:02;;;;;;;0.10;0.10;;;;;21.80;100243.00;;;;5128240;27;20043;-82
2022/02/12 04:51:33;;;;;;;0.10;0.10;;;;;21.60;100245.00;;;;5129685;27;20039;-78
2022/02/12 04:54:03;;;;;;;0.10;0.10;;;;;21.50;100234.00;;;;5129417;27;20038;-79
2022/02/12 04:56:34;;;;;;;0.10;0.10;;;;;21.40;100246.00;;;;5129542;27;20049;-80
2022/02/12 04:59:04;;;;;;;0.10;0.10;;;;;21.40;100233.00;;;;5129679;27;20511;-81
2022/02/12 05:01:36;;;;;;;0.10;0.10;;;;;21.40;100226.00;;;;5129810;27;20035;-83
2022/02/12 05:04:05;;;;;;;0.10;0.10;;;;;21.30;100242.00;;;;5129081;27;20403;-77
2022/02/12 05:06:36;;;;;;;0.10;0.10;;;;;21.20;100229.00;;;;5128681;27;20474;-81
2022/02/12 05:09:05;;;;;;;0.10;0.10;;;;;21.20;100222.00;;;;5129218;27;20043;-82
2022/02/12 05:11:38;;;;;;;0.10;0.10;;;;;21.20;100236.00;;;;5129303;27;20039;-81
2022/02/12 05:14:08;;;;;;;0.10;0.10;;;;;21.10;100218.00;;;;5128800;27;20065;-83
2022/02/12 05:16:38;;;;;;;;;;;;;21.00;100240.00;;;;5129683;27;20506;-76
2022/02/12 05:19:07;;;;;;;0.10;0.10;;;;;21.00;100218.00;;;;5128168;27;19919;-78
2022/02/12 05:21:38;;;;;;;0.10;0.10;;;;;20.90;100226.00;;;;5129069;27;20043;-80
2022/02/12 05:24:07;;;;;;;0.10;0.10;;;;;20.90;100223.00;;;;5127942;27;20489;-80
2022/02/12 05:26:37;;;;;;;0.20;0.20;;;;;20.80;100219.00;;;;5127957;27;20066;-80
2022/02/12 05:29:06;;;;;;;0.20;0.20;;;;;20.80;100225.00;;;;5127246;27;20505;-76
2022/02/12 05:31:36;;;;;;;0.10;0.10;;;;;20.70;100232.00;;;;5110974;27;20498;-77
2022/02/12 05:34:05;;;;;;;0.15;0.15;;;;;20.70;100233.00;;;;5128287;27;20047;-77
2022/02/12 05:36:35;;;;;;;0.10;0.10;;;;;20.70;100236.00;;;;5127409;27;20051;-81
2022/02/12 05:39:05;;;;;;;0.20;0.20;;;;;20.70;100237.00;;;;5129152;27;20035;-81
2022/02/12 05:41:34;;;;;;;0.20;0.20;;;;;20.60;100214.00;;;;5128222;27;20050;-78
2022/02/12 05:44:05;;;;;;;0.20;0.20;;;;;20.60;100245.00;;;;5128874;27;20055;-79
2022/02/12 05:46:36;;;;;;;0.20;0.20;;;;;20.60;100236.00;;;;5128540;27;20134;-77
2022/02/12 05:49:06;;;;;;;0.20;0.20;;;;;20.50;100220.00;;;;5128841;27;20082;-78
2022/02/12 05:51:36;;;;;;;;;;;;;20.50;100234.00;;;;5128364;27;20043;-80
2022/02/12 05:54:06;;;;;;;0.20;0.20;;;;;20.50;100234.00;;;;5128261;27;20306;-83
2022/02/12 05:56:35;;;;;;;0.20;0.20;;;;;20.40;100210.00;;;;5128159;27;20047;-81
2022/02/12 05:59:08;;;;;;;0.15;0.15;;;;;20.40;100210.00;;;;5128530;27;20775;-80
2022/02/12 06:01:38;;;;;;;0.20;0.20;;;;;20.40;100228.00;;;;5129147;27;20427;-75
2022/02/12 06:04:08;;;;;;;0.20;0.20;;;;;20.40;100221.00;;;;5126993;27;20043;-81
2022/02/12 06:06:37;;;;;;;0.20;0.20;;;;;20.30;100224.00;;;;5128493;27;20055;-80
2022/02/12 06:09:07;;;;;;;0.20;0.20;;;;;20.30;100237.00;;;;5127494;27;20042;-77
2022/02/12 06:11:36;;;;;;;0.20;0.20;;;;;20.30;100237.00;;;;5128304;27;20035;-80
2022/02/12 06:14:05;;;;;;;0.20;0.20;;;;;20.40;100220.00;;;;5128061;27;20506;-76
2022/02/12 06:16:35;;;;;;;0.20;0.20;;;;;20.40;100233.00;;;;5126793;27;20092;-82
2022/02/12 06:19:05;;;;;;;0.30;0.30;;;;;20.30;100230.00;;;;5127739;27;20043;-78
2022/02/12 06:21:34;;;;;;;0.20;0.20;;;;;20.30;100245.00;;;;5126550;27;20039;-78
2022/02/12 06:24:04;;;;;;;0.20;0.20;;;;;20.20;100224.00;;;;5126210;27;20043;-77
2022/02/12 06:26:33;;;;;;;0.20;0.20;;;;;20.20;100242.00;;;;5128635;27;20493;-77
2022/02/12 06:29:03;;;;;;;0.20;0.20;;;;;20.20;100229.00;;;;5127734;27;20592;-77
2022/02/12 06:31:33;;;;;;;0.20;0.20;;;;;20.20;100252.00;;;;5126263;27;20050;-80
2022/02/12 06:34:02;;;;;;;0.20;0.20;;;;;20.10;100231.00;;;;5127463;27;20452;-76
2022/02/12 06:36:32;;;;;;;0.20;0.20;;;;;20.10;100253.00;;;;5128119;27;20064;-80
2022/02/12 06:39:03;;;;;;;0.20;0.20;;;;;20.00;100250.00;;;;5125931;27;20049;-79
2022/02/12 06:41:33;;;;;;;0.20;0.20;;;;;20.00;100246.00;;;;5127456;27;20047;-78
2022/02/12 06:44:02;;;;;;;0.20;0.20;;;;;20.00;100243.00;;;;5128868;27;20635;-78
2022/02/12 06:46:32;;;;;;;0.20;0.20;;;;;20.00;100261.00;;;;5128271;27;20096;-75
2022/02/12 06:49:03;;;;;;;0.20;0.20;;;;;20.00;100264.00;;;;5127756;27;20046;-79
2022/02/12 06:51:37;;;;;;;0.20;0.20;;;;;19.90;100268.00;;;;5126732;27;20051;-82
2022/02/12 06:54:06;;;;;;;0.20;0.20;;;;;19.90;100263.00;;;;5127191;27;20452;-78
2022/02/12 06:56:36;;;;;;;0.20;0.20;;;;;19.80;100272.00;;;;5127143;27;20039;-77
2022/02/12 06:59:05;;;;;;;0.20;0.20;;;;;19.80;100266.00;;;;5128156;27;20050;-78
2022/02/12 07:01:35;;;;;;;0.20;0.20;;;;;19.90;100265.00;;;;5128057;27;20395;-76
2022/02/12 07:04:06;;;;;;;0.25;0.25;;;;;19.90;100269.00;;;;5127844;27;20047;-78
2022/02/12 07:06:36;;;;;;;0.20;0.20;;;;;19.80;100286.00;;;;5127413;27;20069;-80
2022/02/12 07:09:11;;;;;;;0.20;0.20;;;;;19.80;100274.00;;;;5125401;27;20047;-83
2022/02/12 07:11:41;;;;;;;0.30;0.30;;;;;19.80;100282.00;;;;5127322;27;20043;-82
2022/02/12 07:14:10;;;;;;;0.20;0.20;;;;;19.70;100281.00;;;;5127585;27;20055;-81
2022/02/12 07:16:40;;;;;;;0.20;0.20;;;;;19.70;100284.00;;;;5128360;27;20065;-76
2022/02/12 07:19:09;;;;;;;0.20;0.20;;;;;19.60;100287.00;;;;5125701;28;20043;-78
2022/02/12 07:21:39;;;;;;;0.25;0.25;;;;;19.60;100290.00;;;;5125898;28;20061;-80
2022/02/12 07:24:10;;;;;;;0.30;0.30;;;;;19.60;100291.00;;;;5127952;27;20092;-77
2022/02/12 07:26:40;;;;;;;0.20;0.20;;;;;19.60;100293.00;;;;5126099;28;20318;-77
2022/02/12 07:29:10;;;;;;;0.30;0.30;;;;;19.70;100292.00;;;;5125464;28;20132;-80
2022/02/12 07:31:40;;;;;;;0.20;0.20;;;;;19.70;100287.00;;;;5125714;28;20038;-79
2022/02/12 07:34:15;;;;;;;0.20;0.20;;;;;19.70;100269.00;;;;5126080;28;20046;-81
2022/02/12 07:36:45;;;;;;;0.20;0.20;;;;;19.60;100281.00;;;;5130483;27;20823;-76
2022/02/12 07:39:14;;;;;;;0.20;0.20;;;;;19.60;100277.00;;;;5129412;27;20039;-77
2022/02/12 07:41:45;;;;;;;0.30;0.30;;;;;19.70;100290.00;;;;5131015;27;20050;-83
2022/02/12 07:44:14;;;;;;;0.30;0.30;;;;;19.60;100277.00;;;;5130044;27;20051;-80
2022/02/12 07:46:44;;;;;;;0.28;0.28;;;;;19.50;100274.00;;;;5130205;27;20096;-79
2022/02/12 07:49:14;;;;;;;0.20;0.20;;;;;19.60;100281.00;;;;5131206;27;20043;-82
2022/02/12 07:51:43;;;;;;;0.20;0.20;;;;;19.50;100285.00;;;;5129146;27;20031;-79
2022/02/12 07:54:13;;;;;;;0.20;0.20;;;;;19.50;100283.00;;;;5130849;27;20043;-84
2022/02/12 07:56:43;;;;;;;0.20;0.20;;;;;19.50;100291.00;;;;5130425;27;20463;-77
2022/02/12 07:59:13;;;;;;;0.20;0.20;;;;;19.40;100291.00;;;;5128998;27;20105;-82
2022/02/12 08:01:43;;;;;;;0.30;0.30;;;;;19.40;100304.00;;;;5130903;27;20506;-79
2022/02/12 08:04:12;;;;;;;0.20;0.20;;;;;19.40;100274.00;;;;5129042;27;20086;-75
2022/02/12 08:09:31;;;;;;;0.20;0.20;;;;;19.40;100284.00;;;;5130616;27;20046;-81
2022/02/12 08:12:18;;;;;;;0.20;0.20;;;;;19.30;100293.00;;;;5130611;27;20039;-76
2022/02/12 08:14:51;;;;;;;0.20;0.20;;;;;19.40;100277.00;;;;5128900;27;20039;-77
2022/02/12 08:17:22;;;;;;;0.20;0.20;;;;;19.30;100297.00;;;;5130107;27;20422;-75
2022/02/12 08:19:52;;;;;;;0.20;0.20;;;;;19.30;100299.00;;;;5129966;27;20070;-80
2022/02/12 08:22:22;;;;;;;0.20;0.20;;;;;19.30;100301.00;;;;5128977;27;20548;-80
2022/02/12 08:24:51;;;;;;;0.20;0.20;;;;;19.30;100306.00;;;;5129159;27;20051;-81
2022/02/12 08:27:22;;;;;;;0.20;0.20;;;;;19.30;100299.00;;;;5112290;27;20513;-77
2022/02/12 08:29:52;;;;;;;0.20;0.20;;;;;19.30;100304.00;;;;5128816;27;20053;-78
2022/02/12 08:32:23;;;;;;;0.20;0.20;;;;;19.20;100325.00;;;;5129963;27;20047;-83
2022/02/12 08:34:54;;;;;;;0.20;0.20;;;;;19.20;100295.00;;;;5129057;27;20043;-79
2022/02/12 08:37:23;;;;;;;0.20;0.20;;;;;19.20;100318.00;;;;5129292;27;20061;-78
2022/02/12 08:39:53;;;;;;;0.20;0.20;;;;;19.10;100291.00;;;;5130422;27;20031;-79
2022/02/12 08:42:22;;;;;;;0.20;0.20;;;;;19.10;100306.00;;;;5127994;27;20059;-78
2022/02/12 08:44:51;;;;;;;0.20;0.20;;;;;19.00;100291.00;;;;5127915;27;20062;-79
2022/02/12 08:47:21;;;;;;;0.20;0.20;;;;;19.00;100316.00;;;;5128926;27;20134;-76
2022/02/12 08:49:50;;;;;;;0.20;0.20;;;;;18.90;100288.00;;;;5130135;27;20043;-78
2022/02/12 08:52:20;;;;;;;0.20;0.20;;;;;18.90;100312.00;;;;5129604;27;20391;-77
2022/02/12 08:54:49;;;;;;;0.20;0.20;;;;;18.90;100298.00;;;;5128091;27;20038;-81
2022/02/12 08:57:18;;;;;;;0.20;0.20;;;;;18.90;100320.00;;;;5128818;27;20043;-77
2022/02/12 08:59:49;;;;;;;0.20;0.20;;;;;18.90;100316.00;;;;5113143;27;20110;-82
2022/02/12 09:02:19;;;;;;;0.20;0.20;;;;;19.00;100326.00;;;;5130785;27;20039;-81
2022/02/12 09:04:48;;;;;;;0.20;0.20;;;;;19.00;100332.00;;;;5128003;27;20433;-77
2022/02/12 09:07:18;;;;;;;0.20;0.20;;;;;19.00;100325.00;;;;5129309;27;20040;-77
2022/02/12 09:09:47;;;;;;;0.80;0.80;;;;;19.00;100332.00;;;;5128894;27;20039;-76
2022/02/12 09:12:17;;;;;;;0.20;0.20;;;;;19.00;100339.00;;;;5111088;27;20100;-77
2022/02/12 09:14:47;;;;;;;0.20;0.20;;;;;19.00;100304.00;;;;5111072;27;20462;-80
2022/02/12 09:17:16;;;;;;;0.20;0.20;;;;;19.00;100326.00;;;;5129003;27;20042;-78
2022/02/12 09:19:46;;;;;;;0.20;0.20;;;;;19.00;100330.00;;;;5129471;27;20051;-77
2022/02/12 09:22:16;;;;;;;0.20;0.20;;;;;19.00;100342.00;;;;5128983;27;20486;-81
2022/02/12 09:24:46;;;;;;;0.22;0.22;;;;;19.10;100318.00;;;;5129113;27;20043;-79
2022/02/12 09:27:16;;;;;;;0.20;0.20;;;;;19.10;100336.00;;;;5127461;27;20417;-74
2022/02/12 09:29:46;;;;;;;;;;;;;19.10;100337.00;;;;5129696;27;20513;-80
2022/02/12 09:32:16;;;;;;;0.20;0.20;;;;;19.20;100333.00;;;;5129206;27;19919;-77
2022/02/12 09:34:45;;;;;;;0.20;0.20;;;;;19.30;100336.00;;;;5128072;27;20043;-77
2022/02/12 09:37:15;;;;;;;0.20;0.20;;;;;19.30;100331.00;;;;5128366;27;20406;-74
2022/02/12 09:39:45;;;;;;;0.20;0.20;;;;;19.40;100330.00;;;;5127831;27;20036;-81
2022/02/12 09:42:18;;;;;;;0.20;0.20;;;;;19.50;100331.00;;;;5128044;27;20497;-82
2022/02/12 09:44:48;;;;;;;0.20;0.20;;;;;19.60;100348.00;;;;5129034;27;20111;-77
2022/02/12 09:47:26;;;;;;;0.20;0.20;;;;;19.70;100353.00;;;;5127260;27;20055;-79
2022/02/12 09:49:58;;;;;;;0.20;0.20;;;;;19.80;100343.00;;;;5129294;27;20075;-80
2022/02/12 09:52:34;;;;;;;0.20;0.20;;;;;19.90;100352.00;;;;5127611;27;20142;-81
2022/02/12 09:55:06;;;;;;;0.20;0.20;;;;;20.00;100357.00;;;;5128235;27;20444;-78
2022/02/12 09:57:36;;;;;;;0.20;0.20;;;;;20.10;100336.00;;;;5127371;27;20047;-83
2022/02/12 10:00:09;;;;;;;0.20;0.20;;;;;20.30;100331.00;;;;5126672;27;20100;-81
2022/02/12 10:02:39;;;;;;;0.20;0.20;;;;;20.40;100354.00;;;;5127146;27;20047;-84
2022/02/12 10:05:26;;;;;;;0.20;0.20;;;;;20.60;100352.00;;;;5128879;27;20035;-81
2022/02/12 10:08:02;;;;;;;0.20;0.20;;;;;20.70;100346.00;;;;5127112;27;20555;-80
2022/02/12 10:10:32;;;;;;;0.20;0.20;;;;;20.90;100342.00;;;;5127040;27;20120;-81
2022/02/12 10:13:15;;;;;;;0.20;0.20;;;;;21.50;100320.00;;;;5127141;27;20043;-77
2022/02/12 10:15:47;;;;;;;0.20;0.20;;;;;22.00;100307.00;;;;5128245;27;20050;-80
2022/02/12 10:18:22;;;;;;;0.20;0.20;;;;;24.30;100218.00;;;;5127692;27;20514;-77
2022/02/12 10:20:56;;;;;;;0.20;0.20;;;;;26.10;100229.00;;;;5126668;27;20605;-81
2022/02/12 10:23:28;;;;;;;0.20;0.20;;;;;26.40;100214.00;;;;5126757;27;20134;-78
2022/02/12 10:26:03;;;;;;;0.20;0.20;;;;;26.80;100237.00;;;;5127764;27;20051;-82
2022/02/12 10:28:38;;;;;;;0.20;0.20;;;;;27.20;100227.00;;;;5126317;27;20528;-81
2022/02/12 10:31:09;;;;;;;0.20;0.20;;;;;28.20;100201.00;;;;5127875;27;20421;-76
2022/02/12 10:33:48;;;;;;;0.15;0.15;;;;;29.00;100195.00;;;;5126411;27;20039;-75
2022/02/12 10:36:19;;;;;;;0.20;0.20;;;;;29.50;100205.00;;;;5127279;27;20130;-82
2022/02/12 10:38:51;;;;;;;0.10;0.10;;;;;29.80;100209.00;;;;5107285;27;20047;-77
2022/02/12 10:41:23;;;;;;;0.20;0.20;;;;;30.20;100194.00;;;;5125795;27;20537;-80
2022/02/12 10:43:53;;;;;;;0.10;0.10;;;;;30.70;100212.00;;;;5128726;27;20068;-81
2022/02/12 10:46:23;;;;;;;0.20;0.20;;;;;31.00;100212.00;;;;5128187;27;20151;-81
2022/02/12 10:48:53;;;;;;;0.10;0.10;;;;;31.40;100221.00;;;;5128362;27;20100;-82
2022/02/12 10:51:25;;;;;;;0.10;0.10;;;;;31.30;100215.00;;;;5127228;27;20463;-82
2022/02/12 10:54:02;;;;;;;0.10;0.10;;;;;31.60;100210.00;;;;5110032;27;20047;-82
2022/02/12 10:56:48;;;;;;;0.10;0.10;;;;;31.80;100188.00;;;;5110357;27;20126;-78
2022/02/12 10:59:20;;;;;;;0.10;0.10;;;;;31.80;100199.00;;;;5127154;27;20043;-78
2022/02/12 11:01:51;;;;;;;0.10;0.10;;;;;32.30;100187.00;;;;5127926;27;20039;-78
2022/02/12 11:04:23;;;;;;;0.10;0.10;;;;;32.90;100168.00;;;;5127580;27;20528;-77
2022/02/12 11:06:54;;;;;;;0.10;0.10;;;;;32.90;100183.00;;;;5128768;27;20043;-77
2022/02/12 11:09:24;;;;;;;0.10;0.10;;;;;32.80;100173.00;;;;5131052;27;20072;-76
2022/02/12 11:11:54;;;;;;;0.10;0.10;;;;;33.40;100160.00;;;;5132526;27;20710;-78
2022/02/12 11:14:25;;;;;;;0.10;0.10;;;;;33.70;100169.00;;;;5133183;28;20047;-78
2022/02/12 11:16:54;;;;;;;0.10;0.10;;;;;34.00;100164.00;;;;5130193;27;20040;-77
2022/02/12 11:19:24;;;;;;;0.10;0.10;;;;;34.10;100152.00;;;;5129560;28;20051;-76
2022/02/12 11:21:55;;;;;;;0.10;0.10;;;;;34.50;100156.00;;;;5132103;27;20039;-77
2022/02/12 11:24:35;;;;;;;0.00;0.00;;;;;34.40;100171.00;;;;5127768;28;20300;-75
2022/02/12 11:27:31;;;;;;;0.10;0.10;;;;;34.10;100161.00;;;;5129240;28;20046;-78
2022/02/12 11:30:19;;;;;;;0.00;0.00;;;;;33.70;100168.00;;;;5126808;28;20134;-84
2022/02/12 11:32:49;;;;;;;0.00;0.00;;;;;33.70;100177.00;;;;5126738;28;20115;-80
2022/02/12 11:35:23;;;;;;;0.00;0.00;;;;;34.30;100170.00;;;;5127173;27;20042;-78
2022/02/12 11:37:53;;;;;;;0.00;0.00;;;;;34.40;100172.00;;;;5127566;28;20061;-78
2022/02/12 11:40:28;;;;;;;0.00;0.00;;;;;35.40;100152.00;;;;5127005;27;20043;-82
2022/02/12 11:43:04;;;;;;;0.00;0.00;;;;;35.10;100160.00;;;;5125011;28;20138;-85
2022/02/12 11:45:47;;;;;;;0.00;0.00;;;;;34.50;100175.00;;;;5125279;28;20043;-82
2022/02/12 11:48:25;;;;;;;0.00;0.00;;;;;33.60;100182.00;;;;5126997;27;20047;-84
2022/02/12 11:51:05;;;;;;;0.00;0.00;;;;;34.20;100170.00;;;;5108807;28;20043;-79
2022/02/12 11:53:48;;;;;;;0.00;0.00;;;;;34.00;100187.00;;;;5126993;28;20039;-79
2022/02/12 11:56:22;;;;;;;0.00;0.00;;;;;33.40;100185.00;;;;5126772;27;20043;-84
2022/02/12 11:58:54;;;;;;;0.00;0.00;;;;;33.40;100169.00;;;;5127271;28;20560;-82
2022/02/12 12:01:27;;;;;;;0.00;0.00;;;;;33.50;100180.00;;;;5125199;28;20494;-78
2022/02/12 12:04:22;;;;;;;0.00;0.00;;;;;33.30;100194.00;;;;5125102;28;20540;-80
2022/02/12 12:07:02;;;;;;;0.00;0.00;;;;;32.20;100195.00;;;;5126511;27;20070;-79
2022/02/12 12:09:34;;;;;;;0.00;0.00;;;;;32.10;100215.00;;;;5125784;28;20092;-78
2022/02/12 12:12:19;;;;;;;0.00;0.00;;;;;32.20;100230.00;;;;5127108;27;20051;-80
2022/02/12 12:15:13;;;;;;;0.00;0.00;;;;;32.00;100284.00;;;;5124903;28;20395;-77
2022/02/12 12:17:42;;;;;;;0.00;0.00;;;;;32.30;100287.00;;;;5119378;27;20587;-81
2022/02/12 12:20:12;;;;;;;0.00;0.00;;;;;32.50;100293.00;;;;5126447;27;20036;-77
2022/02/12 12:22:41;;;;;;;0.00;0.00;;;;;32.70;100293.00;;;;5129699;27;20506;-82
2022/02/12 12:25:11;;;;;;;0.00;0.00;;;;;32.50;100279.00;;;;5128335;27;20062;-81
2022/02/12 12:27:42;;;;;;;0.00;0.00;;;;;32.00;100292.00;;;;5127911;27;20047;-83
2022/02/12 12:33:03;;;;;;;0.00;0.00;;;;;32.00;100279.00;;;;5129857;27;20486;-80
2022/02/12 12:35:33;;;;;;;0.10;0.10;;;;;31.50;100275.00;;;;5129786;27;20047;-80
2022/02/12 12:38:06;;;;;;;0.00;0.00;;;;;31.60;100278.00;;;;5129667;27;20055;-81
2022/02/12 12:40:36;;;;;;;0.00;0.00;;;;;31.90;100285.00;;;;5130004;27;20558;-79